Watford, Canada
Current Conditions -  °F | °C
As of 10:00 PM on Tuesday 21 Oct 2014 (Local Time) from CYZR Reporting Station
Overcast Overcast  
Wind Chill:   Ceiling: 1900
Heat Index:   Visibility: 9mi
Dew Point:   Wind: 17mph
Humidity: 81%   Direction: 20°NNE
Pressure: 30.17"   Gusts: 28mph
Location:  42.95°N, 81.88°W
Report Text: CYZR 220200Z AUTO 02015G24KT 9SM OVC019 08/05 A3017 RMK SLP221
Loading
Personal Weather Stations






























Interactive Weather Map
Tropical Storm Tracking
New forecast layout! Learn more

10-Day Weather Forecast

Advertisements
Track Severe Weather on mobile